Погода Любавичина 2 недели

Смоленская область, Россия

24 мая-06 июня
  • 24мая
    Сегодня
    +8°
    +21°
    Практически безоблачно
    ВремяПогодаТемператураВлажностьДавлениеВетер, м/сВероятность осадков
    00:00Ясно и безоблачно+13°C55 %754 мм3.9 м/с2 %
    03:00Ясно и безоблачно+11°C57 %755 мм4.1 м/с2 %
    06:00Ясно и безоблачно+10°C59 %756 мм4.0 м/с2 %
    09:00Ясно и безоблачно+15°C47 %756 мм4.6 м/с2 %
    12:00Ясно и безоблачно+19°C36 %756 мм5.1 м/с2 %
    15:00Практически безоблачно+21°C34 %756 мм4.6 м/с2 %
    18:00Ясно и безоблачно+20°C35 %755 мм4.1 м/с2 %
    21:00Ясно и безоблачно+15°C53 %755 мм2.8 м/с2 %
  • 25мая
    Суббота
    +9°
    +23°
    Ясно и безоблачно
    ВремяПогодаТемператураВлажностьДавлениеВетер, м/сВероятность осадков
    00:00Ясно и безоблачно+11°C61 %756 мм2.9 м/с2 %
    03:00Ясно и безоблачно+10°C66 %755 мм2.7 м/с2 %
    06:00Ясно и безоблачно+10°C69 %755 мм2.5 м/с2 %
    09:00Ясно и безоблачно+16°C54 %755 мм2.3 м/с2 %
    12:00Ясно и безоблачно+21°C45 %755 мм2.4 м/с2 %
    15:00Ясно и безоблачно+23°C37 %754 мм2.5 м/с2 %
    18:00Ясно и безоблачно+23°C38 %753 мм1.9 м/с2 %
    21:00Ясно и безоблачно+16°C66 %752 мм2.7 м/с2 %
  • 26мая
    Воскресенье
    +12°
    +25°
    Практически безоблачно
    ВремяПогодаТемператураВлажностьДавлениеВетер, м/сВероятность осадков
    00:00Практически безоблачно+13°C71 %752 мм2.2 м/с2 %
    03:00Облачно с прояснениями+10°C78 %752 мм2.4 м/с2 %
    06:00Облачно с прояснениями+12°C75 %752 мм1.9 м/с2 %
    09:00Облачно с прояснениями+19°C55 %753 мм1.6 м/с2 %
    12:00Небольшая облачность+23°C38 %752 мм2.0 м/с2 %
    15:00Практически безоблачно+24°C35 %752 мм2.3 м/с2 %
    18:00Небольшая облачность+24°C39 %751 мм2.3 м/с3 %
    21:00Практически безоблачно+18°C65 %751 мм2.3 м/с2 %
  • 27мая
    Понедельник
    +11°
    +24°
    Облачно с прояснениями
    ВремяПогодаТемператураВлажностьДавлениеВетер, м/сВероятность осадков
    00:00Ясно и безоблачно+15°C66 %751 мм3.3 м/с2 %
    03:00Ясно и безоблачно+13°C78 %752 мм2.6 м/с2 %
    06:00Практически безоблачно+14°C87 %753 мм3.3 м/с4 %
    09:00Ясно и безоблачно+19°C73 %753 мм3.6 м/с5 %
    12:00Практически безоблачно+23°C59 %753 мм4.0 м/с9 %
    15:00Облачно с прояснениями+24°C52 %753 мм2.8 м/с18 %
    18:00Небольшая облачность и лёгкий дождик+22°C58 %753 мм3.8 м/с25 %
    21:00Ясно и безоблачно+18°C59 %753 мм3.2 м/с5 %
  • 28мая
    Вторник
    +12°
    +25°
    Ясно и безоблачно
    ВремяПогодаТемператураВлажностьДавлениеВетер, м/сВероятность осадков
    00:00Ясно и безоблачно+15°C56 %753 мм3.5 м/с2 %
    03:00Ясно и безоблачно+13°C64 %753 мм2.9 м/с2 %
    06:00Ясно и безоблачно+13°C70 %754 мм2.8 м/с2 %
    09:00Ясно и безоблачно+19°C54 %753 мм2.9 м/с3 %
    12:00Ясно и безоблачно+22°C38 %753 мм3.4 м/с5 %
    15:00Ясно и безоблачно+24°C34 %752 мм3.0 м/с7 %
    18:00Ясно и безоблачно+23°C37 %751 мм2.8 м/с9 %
    21:00Ясно и безоблачно+18°C61 %751 мм2.0 м/с4 %
Мы используем cookies
Соглашаюсь